createdAt,value
2023-05-12T00:01:02.528Z,0
2023-05-12T00:02:17.842Z,0
2023-05-12T00:04:50.422Z,0
2023-05-12T00:06:06.729Z,0
2023-05-12T00:07:23.012Z,0
2023-05-12T00:08:39.319Z,0
2023-05-12T00:09:55.611Z,0
2023-05-12T00:12:28.188Z,0
2023-05-12T00:13:44.494Z,0
2023-05-12T00:15:00.771Z,0
2023-05-12T00:16:17.076Z,0
2023-05-12T00:17:33.370Z,0
2023-05-12T00:20:04.980Z,0
2023-05-12T00:21:21.269Z,0
2023-05-12T00:22:37.555Z,0
2023-05-12T00:23:53.858Z,0
2023-05-12T00:25:10.152Z,0
2023-05-12T00:26:26.437Z,0
2023-05-12T00:27:42.723Z,0
2023-05-12T00:28:59.017Z,0
2023-05-12T00:30:15.319Z,0
2023-05-12T00:31:31.608Z,0
2023-05-12T00:32:47.914Z,0
2023-05-12T00:34:04.205Z,0
2023-05-12T00:35:19.522Z,0
2023-05-12T00:36:35.812Z,0
2023-05-12T00:37:52.097Z,0
2023-05-12T00:39:07.409Z,0
2023-05-12T00:40:22.730Z,0
2023-05-12T00:41:39.019Z,0
2023-05-12T00:42:55.321Z,0
2023-05-12T00:44:11.601Z,0
2023-05-12T00:45:27.910Z,0
2023-05-12T00:46:44.198Z,0
2023-05-12T00:48:00.481Z,0
2023-05-12T00:49:16.775Z,0
2023-05-12T00:50:33.075Z,0
2023-05-12T00:51:48.394Z,0
2023-05-12T00:53:03.699Z,0
2023-05-12T00:54:19.989Z,0
2023-05-12T00:55:36.299Z,0
2023-05-12T00:56:52.582Z,0
2023-05-12T00:59:25.167Z,0
2023-05-12T01:00:41.462Z,0
2023-05-12T01:01:57.764Z,0
2023-05-12T01:03:14.050Z,0
2023-05-12T01:05:46.640Z,0
2023-05-12T01:07:01.950Z,0
2023-05-12T01:08:17.278Z,0
2023-05-12T01:09:33.556Z,0
2023-05-12T01:10:49.856Z,0
2023-05-12T01:13:22.435Z,0
2023-05-12T01:14:38.746Z,0
2023-05-12T01:17:11.327Z,0
2023-05-12T01:18:27.627Z,0
2023-05-12T01:21:00.208Z,0
2023-05-12T01:22:16.501Z,0
2023-05-12T01:23:31.822Z,0
2023-05-12T01:24:47.136Z,0
2023-05-12T01:26:03.416Z,0
2023-05-12T01:27:19.718Z,0
2023-05-12T01:28:36.007Z,0
2023-05-12T01:29:52.307Z,0
2023-05-12T01:31:08.594Z,0
2023-05-12T01:32:24.890Z,0
2023-05-12T01:33:41.187Z,0
2023-05-12T01:34:57.483Z,0
2023-05-12T01:36:12.790Z,0
2023-05-12T01:37:28.112Z,0
2023-05-12T01:40:00.683Z,0
2023-05-12T01:41:16.975Z,0
2023-05-12T01:42:33.288Z,0
2023-05-12T01:43:49.575Z,0
2023-05-12T01:45:05.867Z,0
2023-05-12T01:46:22.163Z,0
2023-05-12T01:47:38.457Z,0
2023-05-12T01:48:54.741Z,0
2023-05-12T01:51:27.339Z,0
2023-05-12T01:52:42.644Z,0
2023-05-12T01:53:57.972Z,0
2023-05-12T01:55:14.263Z,0
2023-05-12T01:56:30.553Z,0
2023-05-12T01:57:46.840Z,0
2023-05-12T01:59:03.134Z,0
2023-05-12T02:00:19.436Z,0
2023-05-12T02:01:35.720Z,0
2023-05-12T02:02:52.022Z,0
2023-05-12T02:04:08.322Z,0
2023-05-12T02:05:23.630Z,0
2023-05-12T02:06:38.947Z,0
2023-05-12T02:07:55.223Z,0
2023-05-12T02:09:11.520Z,0
2023-05-12T02:10:27.814Z,0
2023-05-12T02:11:44.108Z,0
2023-05-12T02:14:16.702Z,0
2023-05-12T02:15:32.997Z,0
2023-05-12T02:16:49.291Z,0
2023-05-12T02:18:05.582Z,0
2023-05-12T02:19:21.874Z,0
2023-05-12T02:20:38.164Z,0
2023-05-12T02:21:54.454Z,0
2023-05-12T02:23:09.783Z,0
2023-05-12T02:24:26.070Z,0
2023-05-12T02:25:42.362Z,0
2023-05-12T02:26:58.655Z,0
2023-05-12T02:29:31.233Z,0
2023-05-12T02:30:46.561Z,0
2023-05-12T02:32:01.866Z,0
2023-05-12T02:33:18.152Z,0
2023-05-12T02:34:34.456Z,0
2023-05-12T02:35:50.761Z,0
2023-05-12T02:37:07.041Z,0
2023-05-12T02:38:23.344Z,0
2023-05-12T02:39:39.626Z,0
2023-05-12T02:42:12.212Z,0
2023-05-12T02:43:28.507Z,0
2023-05-12T02:44:44.765Z,0
2023-05-12T02:46:01.048Z,0
2023-05-12T02:47:17.346Z,0
2023-05-12T02:48:32.603Z,0
2023-05-12T02:49:48.861Z,0
2023-05-12T02:52:21.448Z,0
2023-05-12T02:53:37.681Z,0
2023-05-12T02:54:53.924Z,0
2023-05-12T02:56:10.188Z,0
2023-05-12T02:57:26.436Z,0
2023-05-12T02:58:42.681Z,0
2023-05-12T02:59:58.903Z,0
2023-05-12T03:01:15.153Z,0
2023-05-12T03:02:31.392Z,0
2023-05-12T03:03:47.629Z,0
2023-05-12T03:05:02.879Z,0
2023-05-12T03:06:19.120Z,0
2023-05-12T03:07:35.371Z,0
2023-05-12T03:08:50.629Z,0
2023-05-12T03:10:05.880Z,0
2023-05-12T03:11:22.123Z,0
2023-05-12T03:12:38.375Z,0
2023-05-12T03:15:10.848Z,0
2023-05-12T03:16:27.091Z,0
2023-05-12T03:17:43.330Z,0
2023-05-12T03:18:59.576Z,0
2023-05-12T03:20:15.805Z,0
2023-05-12T03:21:32.052Z,0
2023-05-12T03:22:48.278Z,0
2023-05-12T03:24:04.517Z,0
2023-05-12T03:25:20.764Z,0
2023-05-12T03:26:36.027Z,0
2023-05-12T03:27:52.255Z,5
2023-05-12T03:30:24.741Z,5
2023-05-12T03:31:39.999Z,5
2023-05-12T03:32:55.260Z,5
2023-05-12T03:34:11.493Z,5
2023-05-12T03:35:27.738Z,5
2023-05-12T03:38:00.218Z,5
2023-05-12T03:39:16.454Z,5
2023-05-12T03:40:32.692Z,5
2023-05-12T03:41:48.938Z,11
2023-05-12T03:43:05.185Z,11
2023-05-12T03:45:37.655Z,16
2023-05-12T03:46:53.892Z,16
2023-05-12T03:48:10.139Z,11
2023-05-12T03:49:25.397Z,11
2023-05-12T03:50:41.644Z,16
2023-05-12T03:51:57.883Z,16
2023-05-12T03:53:14.110Z,16
2023-05-12T03:54:30.350Z,16
2023-05-12T03:55:46.605Z,16
2023-05-12T03:57:02.841Z,22
2023-05-12T03:58:19.075Z,22
2023-05-12T03:59:35.317Z,28
2023-05-12T04:00:51.561Z,28
2023-05-12T04:02:07.791Z,33
2023-05-12T04:03:24.041Z,33
2023-05-12T04:04:39.286Z,33
2023-05-12T04:05:54.552Z,33
2023-05-12T04:07:10.781Z,39
2023-05-12T04:08:27.040Z,39
2023-05-12T04:09:43.266Z,45
2023-05-12T04:10:59.515Z,45
2023-05-12T04:12:15.750Z,45
2023-05-12T04:13:31.989Z,50
2023-05-12T04:16:04.462Z,50
2023-05-12T04:17:19.730Z,56
2023-05-12T04:18:35.977Z,56
2023-05-12T04:19:52.202Z,61
2023-05-12T04:21:08.450Z,61
2023-05-12T04:23:40.923Z,67
2023-05-12T04:24:56.186Z,73
2023-05-12T04:26:11.459Z,78
2023-05-12T04:27:27.691Z,78
2023-05-12T04:28:43.920Z,78
2023-05-12T04:30:00.161Z,78
2023-05-12T04:31:16.419Z,78
2023-05-12T04:32:32.656Z,78
2023-05-12T04:33:48.880Z,84
2023-05-12T04:35:05.130Z,84
2023-05-12T04:36:21.364Z,84
2023-05-12T04:37:36.634Z,90
2023-05-12T04:38:51.895Z,90
2023-05-12T04:40:08.124Z,90
2023-05-12T04:41:24.368Z,95
2023-05-12T04:42:40.601Z,95
2023-05-12T04:43:56.841Z,101
2023-05-12T04:45:13.083Z,106
2023-05-12T04:46:29.328Z,112
2023-05-12T04:47:45.575Z,118
2023-05-12T04:49:01.812Z,123
2023-05-12T04:50:17.078Z,129
2023-05-12T04:51:32.319Z,135
2023-05-12T04:52:48.565Z,140
2023-05-12T04:54:04.812Z,140
2023-05-12T04:55:21.039Z,146
2023-05-12T04:56:37.281Z,146
2023-05-12T04:57:53.517Z,157
2023-05-12T04:59:09.754Z,157
2023-05-12T05:00:26.006Z,163
2023-05-12T05:01:42.246Z,168
2023-05-12T05:02:58.474Z,168
2023-05-12T05:04:14.715Z,174
2023-05-12T05:05:30.953Z,180
2023-05-12T05:06:47.210Z,185
2023-05-12T05:08:02.450Z,185
2023-05-12T05:09:18.710Z,185
2023-05-12T05:10:34.935Z,191
2023-05-12T05:11:51.169Z,196
2023-05-12T05:13:07.425Z,202
2023-05-12T05:14:23.658Z,202
2023-05-12T05:15:39.891Z,208
2023-05-12T05:16:56.139Z,213
2023-05-12T05:18:12.377Z,219
2023-05-12T05:19:28.617Z,225
2023-05-12T05:20:44.854Z,225
2023-05-12T05:22:01.104Z,225
2023-05-12T05:23:17.330Z,225
2023-05-12T05:24:32.595Z,225
2023-05-12T05:25:48.833Z,230
2023-05-12T05:27:05.065Z,236
2023-05-12T05:28:21.311Z,241
2023-05-12T05:29:37.551Z,247
2023-05-12T05:30:53.787Z,247
2023-05-12T05:32:10.032Z,247
2023-05-12T05:33:26.264Z,247
2023-05-12T05:34:42.504Z,253
2023-05-12T05:35:58.763Z,253
2023-05-12T05:37:14.998Z,253
2023-05-12T05:38:31.228Z,253
2023-05-12T05:39:47.469Z,258
2023-05-12T05:41:02.726Z,258
2023-05-12T05:42:18.961Z,258
2023-05-12T05:43:35.206Z,264
2023-05-12T05:44:51.456Z,270
2023-05-12T05:46:07.687Z,270
2023-05-12T05:47:23.934Z,270
2023-05-12T05:48:40.159Z,275
2023-05-12T05:49:56.401Z,270
2023-05-12T05:51:12.649Z,275
2023-05-12T05:52:28.895Z,281
2023-05-12T05:53:45.132Z,281
2023-05-12T05:55:01.369Z,286
2023-05-12T05:57:33.848Z,292
2023-05-12T05:58:49.096Z,298
2023-05-12T06:00:05.347Z,292
2023-05-12T06:01:21.583Z,292
2023-05-12T06:02:37.816Z,292
2023-05-12T06:03:54.061Z,298
2023-05-12T06:05:10.305Z,298
2023-05-12T06:06:26.546Z,292
2023-05-12T06:07:42.791Z,286
2023-05-12T06:08:59.020Z,286
2023-05-12T06:10:15.253Z,292
2023-05-12T06:11:31.497Z,286
2023-05-12T06:12:47.744Z,275
2023-05-12T06:14:03.973Z,281
2023-05-12T06:15:19.246Z,281
2023-05-12T06:16:35.476Z,270
2023-05-12T06:17:51.709Z,264
2023-05-12T06:19:07.963Z,270
2023-05-12T06:20:24.200Z,270
2023-05-12T06:21:40.443Z,264
2023-05-12T06:22:56.675Z,264
2023-05-12T06:24:12.924Z,264
2023-05-12T06:25:29.155Z,270
2023-05-12T06:26:45.389Z,264
2023-05-12T06:28:01.634Z,264
2023-05-12T06:29:17.869Z,258
2023-05-12T06:30:34.110Z,253
2023-05-12T06:33:05.611Z,236
2023-05-12T06:34:21.844Z,236
2023-05-12T06:35:38.099Z,236
2023-05-12T06:36:54.340Z,230
2023-05-12T06:38:10.569Z,225
2023-05-12T06:39:26.821Z,225
2023-05-12T06:40:43.049Z,219
2023-05-12T06:41:59.284Z,219
2023-05-12T06:43:15.523Z,213
2023-05-12T06:44:31.782Z,208
2023-05-12T06:45:48.007Z,208
2023-05-12T06:47:04.249Z,202
2023-05-12T06:48:19.500Z,196
2023-05-12T06:49:35.744Z,202
2023-05-12T06:50:51.996Z,196
2023-05-12T06:52:08.238Z,191
2023-05-12T06:53:24.477Z,191
2023-05-12T06:54:40.713Z,191
2023-05-12T06:55:56.939Z,196
2023-05-12T06:58:29.421Z,185
2023-05-12T06:59:45.660Z,180
2023-05-12T07:01:01.903Z,185
2023-05-12T07:02:18.138Z,185
2023-05-12T07:03:34.386Z,185
2023-05-12T07:04:49.639Z,185
2023-05-12T07:06:05.890Z,185
2023-05-12T07:07:22.129Z,185
2023-05-12T07:08:38.353Z,185
2023-05-12T07:09:54.611Z,196
2023-05-12T07:11:10.846Z,202
2023-05-12T07:12:27.089Z,196
2023-05-12T07:13:43.312Z,208
2023-05-12T07:14:59.555Z,213
2023-05-12T07:16:15.802Z,202
2023-05-12T07:17:32.051Z,202
2023-05-12T07:18:48.280Z,208
2023-05-12T07:20:04.521Z,202
2023-05-12T07:21:19.788Z,202
2023-05-12T07:22:36.021Z,202
2023-05-12T07:23:52.268Z,202
2023-05-12T07:25:08.491Z,191
2023-05-12T07:26:24.731Z,185
2023-05-12T07:27:40.988Z,185
2023-05-12T07:28:57.214Z,180
2023-05-12T07:30:13.458Z,180
2023-05-12T07:31:29.704Z,180
2023-05-12T07:32:45.947Z,180
2023-05-12T07:34:02.182Z,180
2023-05-12T07:35:18.423Z,180
2023-05-12T07:36:34.657Z,180
2023-05-12T07:37:49.912Z,180
2023-05-12T07:39:06.145Z,180
2023-05-12T07:40:22.399Z,185
2023-05-12T07:41:38.638Z,185
2023-05-12T07:42:54.874Z,185
2023-05-12T07:44:11.123Z,185
2023-05-12T07:45:27.350Z,185
2023-05-12T07:46:43.590Z,180
2023-05-12T07:47:59.825Z,180
2023-05-12T07:49:16.066Z,180
2023-05-12T07:50:32.307Z,180
2023-05-12T07:51:48.545Z,180
2023-05-12T07:53:04.796Z,180
2023-05-12T07:54:20.058Z,180
2023-05-12T07:55:36.286Z,180
2023-05-12T07:56:52.522Z,180
2023-05-12T07:58:08.770Z,180
2023-05-12T07:59:25.011Z,180
2023-05-12T08:00:41.247Z,180
2023-05-12T08:01:57.491Z,180
2023-05-12T08:03:13.734Z,180
2023-05-12T08:04:29.961Z,180
2023-05-12T08:05:46.203Z,180
2023-05-12T08:07:02.441Z,180
2023-05-12T08:08:18.679Z,180
2023-05-12T08:09:34.933Z,180
2023-05-12T08:12:06.419Z,180
2023-05-12T08:13:22.659Z,174
2023-05-12T08:14:38.906Z,174
2023-05-12T08:15:55.132Z,174
2023-05-12T08:17:11.383Z,174
2023-05-12T08:18:27.629Z,180
2023-05-12T08:19:43.851Z,180
2023-05-12T08:21:00.092Z,174
2023-05-12T08:22:16.342Z,174
2023-05-12T08:23:32.588Z,180
2023-05-12T08:24:48.827Z,174
2023-05-12T08:26:05.066Z,180
2023-05-12T08:27:20.325Z,174
2023-05-12T08:28:36.569Z,174
2023-05-12T08:29:52.788Z,174
2023-05-12T08:31:09.036Z,174
2023-05-12T08:32:24.301Z,174
2023-05-12T08:33:40.535Z,174
2023-05-12T08:34:56.773Z,174
2023-05-12T08:37:29.253Z,174
2023-05-12T08:38:45.505Z,174
2023-05-12T08:40:01.731Z,174
2023-05-12T08:41:17.981Z,174
2023-05-12T08:42:34.224Z,174
2023-05-12T08:43:50.447Z,174
2023-05-12T08:45:06.703Z,174
2023-05-12T08:46:22.932Z,174
2023-05-12T08:47:39.171Z,174
2023-05-12T08:48:54.440Z,174
2023-05-12T08:50:10.675Z,174
2023-05-12T08:51:26.919Z,174
2023-05-12T08:52:43.144Z,174
2023-05-12T08:53:59.383Z,174
2023-05-12T08:55:15.635Z,174
2023-05-12T08:57:48.105Z,174
2023-05-12T08:59:04.358Z,174
2023-05-12T09:00:20.584Z,174
2023-05-12T09:01:36.840Z,174
2023-05-12T09:02:53.079Z,174
2023-05-12T09:04:09.316Z,174
2023-05-12T09:05:24.576Z,174
2023-05-12T09:06:40.799Z,174
2023-05-12T09:07:57.044Z,174
2023-05-12T09:09:13.274Z,174
2023-05-12T09:10:29.526Z,174
2023-05-12T09:11:45.755Z,174
2023-05-12T09:13:02.002Z,174
2023-05-12T09:14:18.242Z,174
2023-05-12T09:15:34.475Z,174
2023-05-12T09:16:50.728Z,174
2023-05-12T09:18:06.955Z,174
2023-05-12T09:20:39.438Z,174
2023-05-12T09:21:54.698Z,174
2023-05-12T09:23:10.932Z,174
2023-05-12T09:24:27.188Z,174
2023-05-12T09:25:43.425Z,174
2023-05-12T09:26:59.666Z,174
2023-05-12T09:28:15.905Z,174
2023-05-12T09:29:32.147Z,174
2023-05-12T09:30:48.374Z,174
2023-05-12T09:32:04.621Z,174
2023-05-12T09:33:20.862Z,174
2023-05-12T09:34:37.091Z,174
2023-05-12T09:35:53.342Z,174
2023-05-12T09:37:09.588Z,174
2023-05-12T09:38:24.833Z,174
2023-05-12T09:39:41.086Z,174
2023-05-12T09:40:57.310Z,174
2023-05-12T09:42:13.551Z,174
2023-05-12T09:43:29.794Z,174
2023-05-12T09:44:46.027Z,174
2023-05-12T09:46:02.281Z,174
2023-05-12T09:47:18.507Z,174
2023-05-12T09:48:34.754Z,174
2023-05-12T09:51:07.237Z,174
2023-05-12T09:52:23.480Z,174
2023-05-12T09:53:39.721Z,174
2023-05-12T09:54:54.963Z,174
2023-05-12T09:56:11.206Z,174
2023-05-12T09:58:43.696Z,174
2023-05-12T09:59:59.931Z,174
2023-05-12T10:01:16.162Z,174
2023-05-12T10:02:32.415Z,174
2023-05-12T10:03:48.657Z,174
2023-05-12T10:06:21.125Z,174
2023-05-12T10:07:36.400Z,174
2023-05-12T10:08:51.637Z,174
2023-05-12T10:10:07.884Z,174
2023-05-12T10:11:24.117Z,174
2023-05-12T10:12:40.355Z,174
2023-05-12T10:13:56.605Z,174
2023-05-12T10:15:12.836Z,174
2023-05-12T10:16:29.090Z,174
2023-05-12T10:17:45.333Z,174
2023-05-12T10:19:01.576Z,180
2023-05-12T10:20:16.823Z,180
2023-05-12T10:21:32.083Z,180
2023-05-12T10:22:48.328Z,180
2023-05-12T10:24:04.561Z,180
2023-05-12T10:25:20.790Z,180
2023-05-12T10:26:37.048Z,180
2023-05-12T10:29:09.518Z,180
2023-05-12T10:30:25.758Z,180
2023-05-12T10:31:42.008Z,180
2023-05-12T10:32:58.248Z,180
2023-05-12T10:34:14.485Z,180
2023-05-12T10:35:30.728Z,180
2023-05-12T10:36:46.951Z,180
2023-05-12T10:38:02.211Z,180
2023-05-12T10:39:18.460Z,180
2023-05-12T10:40:34.711Z,180
2023-05-12T10:41:50.942Z,180
2023-05-12T10:43:07.175Z,180
2023-05-12T10:44:23.408Z,180
2023-05-12T10:45:39.656Z,180
2023-05-12T10:46:55.892Z,180
2023-05-12T10:48:12.133Z,180
2023-05-12T10:49:28.384Z,180
2023-05-12T10:50:44.616Z,180
2023-05-12T10:52:00.854Z,180
2023-05-12T10:53:17.086Z,180
2023-05-12T10:54:32.348Z,180
2023-05-12T10:55:48.590Z,180
2023-05-12T10:57:04.828Z,180
2023-05-12T10:58:21.063Z,180
2023-05-12T10:59:37.303Z,180
2023-05-12T11:00:53.550Z,174
2023-05-12T11:02:09.795Z,174
2023-05-12T11:03:26.037Z,180
2023-05-12T11:04:42.266Z,180
2023-05-12T11:05:58.509Z,180
2023-05-12T11:07:14.752Z,180
2023-05-12T11:08:30.986Z,180
2023-05-12T11:09:47.230Z,180
2023-05-12T11:11:02.497Z,180
2023-05-12T11:12:18.718Z,180
2023-05-12T11:13:34.966Z,180
2023-05-12T11:14:51.214Z,180
2023-05-12T11:16:07.440Z,180
2023-05-12T11:17:23.688Z,180
2023-05-12T11:18:39.915Z,180
2023-05-12T11:19:56.160Z,180
2023-05-12T11:21:12.411Z,185
2023-05-12T11:22:28.641Z,185
2023-05-12T11:23:44.882Z,185
2023-05-12T11:25:01.119Z,185
2023-05-12T11:26:17.365Z,185
2023-05-12T11:27:32.618Z,196
2023-05-12T11:28:48.856Z,202
2023-05-12T11:30:05.099Z,202
2023-05-12T11:31:21.335Z,202
2023-05-12T11:32:37.591Z,196
2023-05-12T11:33:53.814Z,196
2023-05-12T11:35:10.067Z,202
2023-05-12T11:36:26.303Z,196
2023-05-12T11:37:42.542Z,196
2023-05-12T11:38:58.789Z,196
2023-05-12T11:40:15.029Z,196
2023-05-12T11:41:31.252Z,202
2023-05-12T11:42:47.497Z,202
2023-05-12T11:44:02.751Z,202
2023-05-12T11:45:18.995Z,208
2023-05-12T11:46:35.246Z,213
2023-05-12T11:47:51.477Z,230
2023-05-12T11:49:07.722Z,247
2023-05-12T11:50:23.953Z,247
2023-05-12T11:52:56.441Z,253
2023-05-12T11:54:12.681Z,258
2023-05-12T11:55:28.915Z,264
2023-05-12T11:56:45.147Z,264
2023-05-12T11:58:01.399Z,258
2023-05-12T11:59:17.628Z,247
2023-05-12T12:00:32.900Z,236
2023-05-12T12:01:49.144Z,236
2023-05-12T12:04:21.620Z,236
2023-05-12T12:05:37.855Z,230
2023-05-12T12:06:54.096Z,225
2023-05-12T12:08:10.331Z,230
2023-05-12T12:09:26.577Z,225
2023-05-12T12:10:42.805Z,219
2023-05-12T12:11:59.048Z,213
2023-05-12T12:13:15.294Z,230
2023-05-12T12:14:31.540Z,241
2023-05-12T12:15:47.763Z,253
2023-05-12T12:17:03.018Z,258
2023-05-12T12:18:19.276Z,253
2023-05-12T12:19:35.500Z,270
2023-05-12T12:20:51.000Z,275
2023-05-12T12:22:07.995Z,264
2023-05-12T12:23:24.232Z,258
2023-05-12T12:24:40.472Z,258
2023-05-12T12:25:56.698Z,264
2023-05-12T12:27:12.954Z,286
2023-05-12T12:28:29.191Z,286
2023-05-12T12:31:01.657Z,281
2023-05-12T12:32:17.916Z,292
2023-05-12T12:33:33.166Z,303
2023-05-12T12:34:49.411Z,303
2023-05-12T12:36:05.634Z,309
2023-05-12T12:37:21.872Z,309
2023-05-12T12:38:38.128Z,320
2023-05-12T12:39:54.368Z,331
2023-05-12T12:41:10.596Z,326
2023-05-12T12:42:26.836Z,309
2023-05-12T12:43:43.089Z,298
2023-05-12T12:44:59.315Z,298
2023-05-12T12:46:15.567Z,298
2023-05-12T12:47:30.833Z,315
2023-05-12T12:48:47.060Z,320
2023-05-12T12:50:03.307Z,337
2023-05-12T12:51:19.552Z,354
2023-05-12T12:53:52.018Z,382
2023-05-12T12:55:08.266Z,382
2023-05-12T12:56:24.498Z,399
2023-05-12T12:57:40.739Z,405
2023-05-12T12:58:56.988Z,410
2023-05-12T13:01:29.467Z,410
2023-05-12T13:02:45.709Z,399
2023-05-12T13:04:00.955Z,376
2023-05-12T13:05:17.191Z,365
2023-05-12T13:06:33.439Z,360
2023-05-12T13:07:49.686Z,343
2023-05-12T13:09:05.924Z,337
2023-05-12T13:10:22.157Z,320
2023-05-12T13:11:38.406Z,326
2023-05-12T13:12:54.629Z,326
2023-05-12T13:14:10.885Z,326
2023-05-12T13:15:27.125Z,331
2023-05-12T13:16:43.363Z,337
2023-05-12T13:17:59.598Z,320
2023-05-12T13:19:15.839Z,337
2023-05-12T13:20:31.088Z,360
2023-05-12T13:21:47.337Z,399
2023-05-12T13:23:03.582Z,421
2023-05-12T13:24:19.810Z,421
2023-05-12T13:25:36.047Z,416
2023-05-12T13:26:52.288Z,399
2023-05-12T13:28:08.528Z,371
2023-05-12T13:29:24.772Z,343
2023-05-12T13:30:41.014Z,326
2023-05-12T13:31:57.249Z,331
2023-05-12T13:33:13.493Z,354
2023-05-12T13:34:29.739Z,388
2023-05-12T13:35:45.979Z,405
2023-05-12T13:37:01.225Z,421
2023-05-12T13:38:17.473Z,421
2023-05-12T13:39:33.718Z,438
2023-05-12T13:40:49.940Z,416
2023-05-12T13:42:06.183Z,382
2023-05-12T13:43:22.439Z,320
2023-05-12T13:44:38.663Z,270
2023-05-12T13:45:54.902Z,241
2023-05-12T13:47:11.140Z,230
2023-05-12T13:48:27.392Z,230
2023-05-12T13:49:43.627Z,236
2023-05-12T13:50:59.864Z,241
2023-05-12T13:52:16.115Z,247
2023-05-12T13:53:31.362Z,247
2023-05-12T13:54:47.611Z,258
2023-05-12T13:57:20.078Z,281
2023-05-12T13:58:36.330Z,298
2023-05-12T13:59:52.569Z,309
2023-05-12T14:01:08.800Z,309
2023-05-12T14:02:25.046Z,292
2023-05-12T14:04:57.524Z,286
2023-05-12T14:06:13.766Z,298
2023-05-12T14:07:30.009Z,309
2023-05-12T14:08:46.247Z,315
2023-05-12T14:10:01.507Z,326
2023-05-12T14:11:17.737Z,331
2023-05-12T14:12:33.977Z,348
2023-05-12T14:13:50.220Z,360
2023-05-12T14:15:06.458Z,360
2023-05-12T14:16:22.710Z,388
2023-05-12T14:17:38.949Z,371
2023-05-12T14:18:55.168Z,376
2023-05-12T14:20:11.422Z,382
2023-05-12T14:21:27.666Z,393
2023-05-12T14:22:43.906Z,405
2023-05-12T14:25:16.379Z,405
2023-05-12T14:26:31.634Z,405
2023-05-12T14:27:47.877Z,382
2023-05-12T14:29:04.117Z,371
2023-05-12T14:30:20.355Z,354
2023-05-12T14:32:52.842Z,303
2023-05-12T14:34:09.081Z,281
2023-05-12T14:35:25.323Z,264
2023-05-12T14:36:41.551Z,258
2023-05-12T14:37:57.783Z,258
2023-05-12T14:39:14.033Z,264
2023-05-12T14:40:30.277Z,264
2023-05-12T14:41:46.510Z,258
2023-05-12T14:43:01.770Z,247
2023-05-12T14:44:18.003Z,236
2023-05-12T14:45:34.254Z,230
2023-05-12T14:46:50.497Z,230
2023-05-12T14:48:06.734Z,225
2023-05-12T14:49:22.973Z,219
2023-05-12T14:50:39.199Z,213
2023-05-12T14:51:55.450Z,219
2023-05-12T14:53:11.691Z,219
2023-05-12T14:55:44.166Z,219
2023-05-12T14:57:00.407Z,219
2023-05-12T14:58:16.643Z,219
2023-05-12T14:59:31.906Z,219
2023-05-12T15:00:48.149Z,219
2023-05-12T15:02:04.393Z,219
2023-05-12T15:03:20.633Z,225
2023-05-12T15:04:36.855Z,241
2023-05-12T15:05:53.094Z,258
2023-05-12T15:07:09.353Z,275
2023-05-12T15:08:25.577Z,286
2023-05-12T15:09:41.833Z,298
2023-05-12T15:10:58.053Z,309
2023-05-12T15:12:14.312Z,315
2023-05-12T15:13:30.533Z,315
2023-05-12T15:14:46.789Z,326
2023-05-12T15:16:02.035Z,331
2023-05-12T15:17:18.275Z,331
2023-05-12T15:18:34.510Z,331
2023-05-12T15:19:50.755Z,331
2023-05-12T15:22:23.249Z,337
2023-05-12T15:23:39.482Z,337
2023-05-12T15:24:55.710Z,337
2023-05-12T15:26:11.967Z,348
2023-05-12T15:27:28.189Z,360
2023-05-12T15:28:44.432Z,365
2023-05-12T15:30:00.668Z,365
2023-05-12T15:31:16.908Z,365
2023-05-12T15:32:32.180Z,376
2023-05-12T15:33:48.406Z,388
2023-05-12T15:36:20.897Z,354
2023-05-12T15:37:37.137Z,343
2023-05-12T15:38:53.366Z,331
2023-05-12T15:40:09.618Z,303
2023-05-12T15:41:25.854Z,281
2023-05-12T15:42:42.103Z,270
2023-05-12T15:43:58.326Z,270
2023-05-12T15:45:14.574Z,275
2023-05-12T15:46:30.808Z,275
2023-05-12T15:47:47.047Z,258
2023-05-12T15:49:02.313Z,241
2023-05-12T15:50:18.551Z,225
2023-05-12T15:51:34.786Z,230
2023-05-12T15:52:51.025Z,225
2023-05-12T15:54:07.274Z,219
2023-05-12T15:55:23.521Z,225
2023-05-12T15:56:39.763Z,230
2023-05-12T15:57:55.994Z,230
2023-05-12T15:59:12.234Z,236
2023-05-12T16:00:28.471Z,258
2023-05-12T16:01:44.708Z,416
2023-05-12T16:03:00.960Z,281
2023-05-12T16:04:17.196Z,270
2023-05-12T16:05:32.442Z,646
2023-05-12T16:06:48.689Z,320
2023-05-12T16:08:04.924Z,478
2023-05-12T16:09:21.172Z,320
2023-05-12T16:11:53.647Z,680
2023-05-12T16:13:09.877Z,804
2023-05-12T16:14:26.126Z,787
2023-05-12T16:15:42.357Z,810
2023-05-12T16:16:58.613Z,748
2023-05-12T16:19:31.093Z,675
2023-05-12T16:20:47.317Z,590
2023-05-12T16:22:02.586Z,354
2023-05-12T16:23:18.817Z,697
2023-05-12T16:24:35.065Z,697
2023-05-12T16:25:51.306Z,736
2023-05-12T16:27:07.549Z,641
2023-05-12T16:28:23.778Z,725
2023-05-12T16:29:40.023Z,562
2023-05-12T16:30:56.252Z,500
2023-05-12T16:32:12.504Z,759
2023-05-12T16:33:28.751Z,573
2023-05-12T16:34:44.988Z,421
2023-05-12T16:36:01.222Z,675
2023-05-12T16:37:17.456Z,714
2023-05-12T16:38:32.712Z,697
2023-05-12T16:39:48.965Z,652
2023-05-12T16:41:05.199Z,585
2023-05-12T16:42:21.442Z,556
2023-05-12T16:43:37.677Z,517
2023-05-12T16:44:53.928Z,478
2023-05-12T16:46:10.164Z,433
2023-05-12T16:47:26.394Z,388
2023-05-12T16:48:42.640Z,202
2023-05-12T16:49:58.877Z,365
2023-05-12T16:51:15.125Z,360
2023-05-12T16:52:31.352Z,315
2023-05-12T16:53:47.589Z,90
2023-05-12T16:55:02.857Z,84
2023-05-12T16:57:35.337Z,78
2023-05-12T16:58:51.583Z,78
2023-05-12T17:00:07.824Z,78
2023-05-12T17:01:24.061Z,78
2023-05-12T17:02:39.314Z,78
2023-05-12T17:03:55.549Z,73
2023-05-12T17:05:11.807Z,73
2023-05-12T17:06:28.039Z,78
2023-05-12T17:07:44.277Z,78
2023-05-12T17:09:00.521Z,78
2023-05-12T17:10:16.751Z,78
2023-05-12T17:11:32.990Z,73
2023-05-12T17:12:49.236Z,73
2023-05-12T17:14:05.483Z,67
2023-05-12T17:15:20.742Z,67
2023-05-12T17:16:35.987Z,67
2023-05-12T17:17:52.237Z,67
2023-05-12T17:19:08.470Z,67
2023-05-12T17:20:24.721Z,67
2023-05-12T17:22:57.189Z,67
2023-05-12T17:24:13.431Z,67
2023-05-12T17:25:29.679Z,73
2023-05-12T17:26:45.907Z,73
2023-05-12T17:28:02.154Z,73
2023-05-12T17:29:18.400Z,73
2023-05-12T17:30:34.639Z,73
2023-05-12T17:31:50.875Z,78
2023-05-12T17:33:06.139Z,78
2023-05-12T17:35:38.615Z,84
2023-05-12T17:36:53.863Z,84
2023-05-12T17:38:09.136Z,84
2023-05-12T17:39:25.367Z,78
2023-05-12T17:40:41.603Z,78
2023-05-12T17:43:14.083Z,67
2023-05-12T17:44:30.319Z,61
2023-05-12T17:45:46.562Z,61
2023-05-12T17:47:02.803Z,61
2023-05-12T17:48:19.047Z,56
2023-05-12T17:49:35.291Z,50
2023-05-12T17:50:51.531Z,50
2023-05-12T17:52:07.767Z,45
2023-05-12T17:53:24.009Z,45
2023-05-12T17:54:39.269Z,45
2023-05-12T17:57:11.734Z,39
2023-05-12T17:58:27.010Z,39
2023-05-12T17:59:42.255Z,33
2023-05-12T18:02:14.736Z,33
2023-05-12T18:03:30.981Z,28
2023-05-12T18:06:03.451Z,28
2023-05-12T18:07:19.695Z,28
2023-05-12T18:08:35.926Z,28
2023-05-12T18:09:52.168Z,28
2023-05-12T18:11:08.406Z,28
2023-05-12T18:12:24.646Z,28
2023-05-12T18:13:40.904Z,28
2023-05-12T18:14:57.130Z,22
2023-05-12T18:16:12.394Z,22
2023-05-12T18:17:28.620Z,22
2023-05-12T18:18:44.866Z,22
2023-05-12T18:21:17.351Z,22
2023-05-12T18:22:33.588Z,16
2023-05-12T18:23:49.823Z,16
2023-05-12T18:25:06.069Z,16
2023-05-12T18:26:22.300Z,16
2023-05-12T18:27:38.544Z,16
2023-05-12T18:28:54.784Z,16
2023-05-12T18:30:11.034Z,16
2023-05-12T18:31:27.273Z,16
2023-05-12T18:32:42.521Z,16
2023-05-12T18:33:57.796Z,16
2023-05-12T18:35:14.034Z,11
2023-05-12T18:36:30.268Z,11
2023-05-12T18:37:46.511Z,11
2023-05-12T18:39:02.737Z,11
2023-05-12T18:40:18.985Z,11
2023-05-12T18:41:35.225Z,11
2023-05-12T18:42:51.473Z,11
2023-05-12T18:44:07.706Z,5
2023-05-12T18:45:22.973Z,5
2023-05-12T18:46:38.230Z,5
2023-05-12T18:47:54.466Z,5
2023-05-12T18:49:10.693Z,5
2023-05-12T18:51:43.176Z,5
2023-05-12T18:52:59.431Z,5
2023-05-12T18:54:15.659Z,5
2023-05-12T18:55:31.907Z,0
2023-05-12T18:56:48.148Z,0